sensor_id;sensor_type;location;lat;lon;timestamp;pressure;altitude;pressure_sealevel;temperature;humidity
72409;BME280;60402;48.082;11.628;2023-09-07T00:01:35;95673.81;;;14.74;100.00
72409;BME280;60402;48.082;11.628;2023-09-07T00:04:21;95706.72;;;14.85;100.00
72409;BME280;60402;48.082;11.628;2023-09-07T00:07:08;95697.78;;;14.64;100.00
72409;BME280;60402;48.082;11.628;2023-09-07T00:09:54;95700.16;;;14.66;100.00
72409;BME280;60402;48.082;11.628;2023-09-07T00:12:40;95696.47;;;14.56;100.00
72409;BME280;60402;48.082;11.628;2023-09-07T00:15:25;95693.09;;;14.48;100.00
72409;BME280;60402;48.082;11.628;2023-09-07T00:18:11;95674.47;;;14.25;100.00
72409;BME280;60402;48.082;11.628;2023-09-07T00:20:58;95699.06;;;14.41;100.00
72409;BME280;60402;48.082;11.628;2023-09-07T00:23:44;95669.84;;;14.19;100.00
72409;BME280;60402;48.082;11.628;2023-09-07T00:26:29;95691.94;;;14.15;100.00
72409;BME280;60402;48.082;11.628;2023-09-07T00:29:16;95693.19;;;14.14;100.00
72409;BME280;60402;48.082;11.628;2023-09-07T00:32:02;95687.22;;;14.21;100.00
72409;BME280;60402;48.082;11.628;2023-09-07T00:34:47;95681.22;;;14.19;100.00
72409;BME280;60402;48.082;11.628;2023-09-07T00:37:33;95694.03;;;14.23;100.00
72409;BME280;60402;48.082;11.628;2023-09-07T00:40:19;95649.09;;;13.87;100.00
72409;BME280;60402;48.082;11.628;2023-09-07T00:43:04;95660.53;;;13.96;100.00
72409;BME280;60402;48.082;11.628;2023-09-07T00:45:50;95682.41;;;14.09;100.00
72409;BME280;60402;48.082;11.628;2023-09-07T00:48:36;95673.84;;;13.99;100.00
72409;BME280;60402;48.082;11.628;2023-09-07T00:51:22;95686.66;;;14.04;100.00
72409;BME280;60402;48.082;11.628;2023-09-07T00:54:08;95704.50;;;14.04;100.00
72409;BME280;60402;48.082;11.628;2023-09-07T00:56:54;95693.72;;;13.99;100.00
72409;BME280;60402;48.082;11.628;2023-09-07T00:59:40;95675.69;;;13.93;100.00
72409;BME280;60402;48.082;11.628;2023-09-07T01:02:26;95662.19;;;13.85;100.00
72409;BME280;60402;48.082;11.628;2023-09-07T01:05:12;95675.47;;;13.88;100.00
72409;BME280;60402;48.082;11.628;2023-09-07T01:08:03;95681.09;;;13.78;100.00
72409;BME280;60402;48.082;11.628;2023-09-07T01:10:52;95681.53;;;13.77;100.00
72409;BME280;60402;48.082;11.628;2023-09-07T01:13:39;95672.81;;;13.71;100.00
72409;BME280;60402;48.082;11.628;2023-09-07T01:16:25;95662.72;;;13.70;100.00
72409;BME280;60402;48.082;11.628;2023-09-07T01:19:11;95685.53;;;13.79;100.00
72409;BME280;60402;48.082;11.628;2023-09-07T01:21:57;95677.03;;;13.67;100.00
72409;BME280;60402;48.082;11.628;2023-09-07T01:24:43;95687.50;;;13.70;100.00
72409;BME280;60402;48.082;11.628;2023-09-07T01:27:30;95679.00;;;13.57;100.00
72409;BME280;60402;48.082;11.628;2023-09-07T01:30:16;95655.34;;;13.38;100.00
72409;BME280;60402;48.082;11.628;2023-09-07T01:33:02;95663.97;;;13.35;100.00
72409;BME280;60402;48.082;11.628;2023-09-07T01:35:48;95667.16;;;13.37;100.00
72409;BME280;60402;48.082;11.628;2023-09-07T01:38:34;95677.47;;;13.43;100.00
72409;BME280;60402;48.082;11.628;2023-09-07T01:41:20;95682.34;;;13.43;100.00
72409;BME280;60402;48.082;11.628;2023-09-07T01:44:05;95678.41;;;13.27;100.00
72409;BME280;60402;48.082;11.628;2023-09-07T01:46:51;95668.19;;;13.17;100.00
72409;BME280;60402;48.082;11.628;2023-09-07T01:49:37;95676.03;;;13.13;100.00
72409;BME280;60402;48.082;11.628;2023-09-07T01:52:22;95678.00;;;13.03;100.00
72409;BME280;60402;48.082;11.628;2023-09-07T01:55:08;95660.88;;;12.94;100.00
72409;BME280;60402;48.082;11.628;2023-09-07T01:57:54;95676.94;;;12.97;100.00
72409;BME280;60402;48.082;11.628;2023-09-07T02:00:39;95652.13;;;12.89;100.00
72409;BME280;60402;48.082;11.628;2023-09-07T02:03:26;95664.91;;;13.06;100.00
72409;BME280;60402;48.082;11.628;2023-09-07T02:06:11;95650.63;;;12.84;100.00
72409;BME280;60402;48.082;11.628;2023-09-07T02:08:57;95651.22;;;12.79;100.00
72409;BME280;60402;48.082;11.628;2023-09-07T02:11:43;95671.19;;;12.88;100.00
72409;BME280;60402;48.082;11.628;2023-09-07T02:14:28;95654.31;;;12.72;100.00
72409;BME280;60402;48.082;11.628;2023-09-07T02:17:14;95671.88;;;12.67;100.00
72409;BME280;60402;48.082;11.628;2023-09-07T02:20:03;95685.81;;;12.74;100.00
72409;BME280;60402;48.082;11.628;2023-09-07T02:22:55;95627.66;;;12.31;100.00
72409;BME280;60402;48.082;11.628;2023-09-07T02:25:41;95657.00;;;12.50;100.00
72409;BME280;60402;48.082;11.628;2023-09-07T02:28:26;95664.84;;;12.46;100.00
72409;BME280;60402;48.082;11.628;2023-09-07T02:31:12;95687.63;;;12.68;100.00
72409;BME280;60402;48.082;11.628;2023-09-07T02:33:58;95677.88;;;12.69;100.00
72409;BME280;60402;48.082;11.628;2023-09-07T02:36:43;95668.94;;;12.58;100.00
72409;BME280;60402;48.082;11.628;2023-09-07T02:39:30;95669.38;;;12.56;100.00
72409;BME280;60402;48.082;11.628;2023-09-07T02:42:16;95695.13;;;12.62;100.00
72409;BME280;60402;48.082;11.628;2023-09-07T02:45:01;95641.81;;;12.31;100.00
72409;BME280;60402;48.082;11.628;2023-09-07T02:47:47;95664.72;;;12.37;100.00
72409;BME280;60402;48.082;11.628;2023-09-07T02:50:36;95662.44;;;12.32;100.00
72409;BME280;60402;48.082;11.628;2023-09-07T02:53:21;95670.16;;;12.31;100.00
72409;BME280;60402;48.082;11.628;2023-09-07T02:56:07;95675.91;;;12.27;100.00
72409;BME280;60402;48.082;11.628;2023-09-07T02:58:53;95681.41;;;12.47;100.00
72409;BME280;60402;48.082;11.628;2023-09-07T03:01:39;95645.88;;;12.17;100.00
72409;BME280;60402;48.082;11.628;2023-09-07T03:04:25;95652.59;;;12.23;100.00
72409;BME280;60402;48.082;11.628;2023-09-07T03:07:10;95664.03;;;12.33;100.00
72409;BME280;60402;48.082;11.628;2023-09-07T03:09:56;95669.59;;;12.23;100.00
72409;BME280;60402;48.082;11.628;2023-09-07T03:12:41;95674.00;;;12.24;100.00
72409;BME280;60402;48.082;11.628;2023-09-07T03:15:27;95681.25;;;12.25;100.00
72409;BME280;60402;48.082;11.628;2023-09-07T03:18:13;95608.03;;;11.69;100.00
72409;BME280;60402;48.082;11.628;2023-09-07T03:21:00;95678.75;;;12.15;100.00
72409;BME280;60402;48.082;11.628;2023-09-07T03:23:46;95653.78;;;11.97;100.00
72409;BME280;60402;48.082;11.628;2023-09-07T03:26:31;95670.81;;;12.10;100.00
72409;BME280;60402;48.082;11.628;2023-09-07T03:29:17;95677.59;;;12.12;100.00
72409;BME280;60402;48.082;11.628;2023-09-07T03:32:03;95675.41;;;12.03;100.00
72409;BME280;60402;48.082;11.628;2023-09-07T03:34:49;95655.00;;;11.83;100.00
72409;BME280;60402;48.082;11.628;2023-09-07T03:37:35;95663.31;;;11.74;100.00
72409;BME280;60402;48.082;11.628;2023-09-07T03:40:22;95664.78;;;11.78;100.00
72409;BME280;60402;48.082;11.628;2023-09-07T03:43:09;95687.75;;;11.97;100.00
72409;BME280;60402;48.082;11.628;2023-09-07T03:45:57;95665.53;;;11.83;100.00
72409;BME280;60402;48.082;11.628;2023-09-07T03:48:42;95668.81;;;11.65;100.00
72409;BME280;60402;48.082;11.628;2023-09-07T03:51:28;95670.91;;;11.48;100.00
72409;BME280;60402;48.082;11.628;2023-09-07T03:54:13;95691.91;;;11.63;100.00
72409;BME280;60402;48.082;11.628;2023-09-07T03:56:59;95680.78;;;11.56;100.00
72409;BME280;60402;48.082;11.628;2023-09-07T03:59:45;95667.03;;;11.42;100.00
72409;BME280;60402;48.082;11.628;2023-09-07T04:02:31;95649.88;;;11.33;100.00
72409;BME280;60402;48.082;11.628;2023-09-07T04:05:17;95682.72;;;11.59;100.00
72409;BME280;60402;48.082;11.628;2023-09-07T04:08:02;95670.47;;;11.49;100.00
72409;BME280;60402;48.082;11.628;2023-09-07T04:10:48;95691.91;;;11.63;100.00
72409;BME280;60402;48.082;11.628;2023-09-07T04:13:35;95692.09;;;11.56;100.00
72409;BME280;60402;48.082;11.628;2023-09-07T04:16:21;95699.00;;;11.55;100.00
72409;BME280;60402;48.082;11.628;2023-09-07T04:19:06;95690.72;;;11.48;100.00
72409;BME280;60402;48.082;11.628;2023-09-07T04:21:52;95671.47;;;11.26;100.00
72409;BME280;60402;48.082;11.628;2023-09-07T04:24:38;95685.78;;;11.36;100.00
72409;BME280;60402;48.082;11.628;2023-09-07T04:27:24;95686.91;;;11.38;100.00
72409;BME280;60402;48.082;11.628;2023-09-07T04:30:10;95688.53;;;11.39;100.00
72409;BME280;60402;48.082;11.628;2023-09-07T04:32:55;95679.25;;;11.39;100.00
72409;BME280;60402;48.082;11.628;2023-09-07T04:35:41;95695.69;;;11.44;100.00
72409;BME280;60402;48.082;11.628;2023-09-07T04:38:27;95679.59;;;11.41;100.00
72409;BME280;60402;48.082;11.628;2023-09-07T04:41:13;95696.59;;;11.24;100.00
72409;BME280;60402;48.082;11.628;2023-09-07T04:43:59;95705.59;;;11.36;100.00
72409;BME280;60402;48.082;11.628;2023-09-07T04:46:45;95705.50;;;11.39;100.00
72409;BME280;60402;48.082;11.628;2023-09-07T04:49:30;95694.78;;;11.47;100.00
72409;BME280;60402;48.082;11.628;2023-09-07T04:52:16;95711.97;;;11.69;100.00
72409;BME280;60402;48.082;11.628;2023-09-07T04:55:02;95716.50;;;11.66;100.00
72409;BME280;60402;48.082;11.628;2023-09-07T04:57:48;95688.31;;;11.46;100.00
72409;BME280;60402;48.082;11.628;2023-09-07T05:00:34;95693.03;;;11.37;100.00
72409;BME280;60402;48.082;11.628;2023-09-07T05:03:20;95703.31;;;11.31;100.00
72409;BME280;60402;48.082;11.628;2023-09-07T05:06:05;95694.72;;;11.34;100.00
72409;BME280;60402;48.082;11.628;2023-09-07T05:08:51;95701.97;;;11.35;100.00
72409;BME280;60402;48.082;11.628;2023-09-07T05:11:37;95717.63;;;11.40;100.00
72409;BME280;60402;48.082;11.628;2023-09-07T05:14:23;95691.63;;;11.29;100.00
72409;BME280;60402;48.082;11.628;2023-09-07T05:17:09;95676.44;;;11.22;100.00
72409;BME280;60402;48.082;11.628;2023-09-07T05:19:55;95714.56;;;11.63;100.00
72409;BME280;60402;48.082;11.628;2023-09-07T05:22:40;95684.16;;;11.51;100.00
72409;BME280;60402;48.082;11.628;2023-09-07T05:25:29;95699.56;;;11.50;100.00
72409;BME280;60402;48.082;11.628;2023-09-07T05:28:15;95712.63;;;11.60;100.00
72409;BME280;60402;48.082;11.628;2023-09-07T05:31:02;95705.00;;;11.57;100.00
72409;BME280;60402;48.082;11.628;2023-09-07T05:33:49;95709.34;;;11.62;100.00
72409;BME280;60402;48.082;11.628;2023-09-07T05:36:37;95697.59;;;11.63;100.00
72409;BME280;60402;48.082;11.628;2023-09-07T05:39:23;95734.66;;;11.98;100.00
72409;BME280;60402;48.082;11.628;2023-09-07T05:42:08;95708.00;;;11.83;100.00
72409;BME280;60402;48.082;11.628;2023-09-07T05:44:54;95740.06;;;11.92;100.00
72409;BME280;60402;48.082;11.628;2023-09-07T05:47:39;95725.13;;;11.92;100.00
72409;BME280;60402;48.082;11.628;2023-09-07T05:50:26;95733.47;;;12.12;100.00
72409;BME280;60402;48.082;11.628;2023-09-07T05:53:11;95708.66;;;12.16;100.00
72409;BME280;60402;48.082;11.628;2023-09-07T05:55:57;95730.56;;;12.41;100.00
72409;BME280;60402;48.082;11.628;2023-09-07T05:58:43;95724.59;;;12.51;100.00
72409;BME280;60402;48.082;11.628;2023-09-07T06:01:28;95735.47;;;12.53;100.00
72409;BME280;60402;48.082;11.628;2023-09-07T06:04:14;95712.69;;;12.44;100.00
72409;BME280;60402;48.082;11.628;2023-09-07T06:07:00;95741.63;;;12.77;100.00
72409;BME280;60402;48.082;11.628;2023-09-07T06:09:45;95746.06;;;13.03;100.00
72409;BME280;60402;48.082;11.628;2023-09-07T06:12:32;95726.22;;;13.03;100.00
72409;BME280;60402;48.082;11.628;2023-09-07T06:15:18;95738.56;;;13.35;100.00
72409;BME280;60402;48.082;11.628;2023-09-07T06:18:03;95749.88;;;13.61;100.00
72409;BME280;60402;48.082;11.628;2023-09-07T06:20:49;95720.78;;;13.69;100.00
72409;BME280;60402;48.082;11.628;2023-09-07T06:23:35;95740.97;;;14.28;100.00
72409;BME280;60402;48.082;11.628;2023-09-07T06:26:20;95722.09;;;14.87;100.00
72409;BME280;60402;48.082;11.628;2023-09-07T06:29:06;95730.38;;;15.03;100.00
72409;BME280;60402;48.082;11.628;2023-09-07T06:31:52;95708.47;;;15.31;100.00
72409;BME280;60402;48.082;11.628;2023-09-07T06:34:37;95730.03;;;15.42;100.00
72409;BME280;60402;48.082;11.628;2023-09-07T06:37:23;95728.06;;;15.88;100.00
72409;BME280;60402;48.082;11.628;2023-09-07T06:40:13;95733.63;;;16.01;100.00
72409;BME280;60402;48.082;11.628;2023-09-07T06:43:00;95732.31;;;16.57;97.18
72409;BME280;60402;48.082;11.628;2023-09-07T06:45:50;95719.19;;;16.32;98.47
72409;BME280;60402;48.082;11.628;2023-09-07T06:48:36;95719.19;;;16.23;100.00
72409;BME280;60402;48.082;11.628;2023-09-07T06:51:21;95715.75;;;16.28;100.00
72409;BME280;60402;48.082;11.628;2023-09-07T06:54:07;95722.53;;;16.40;100.00
72409;BME280;60402;48.082;11.628;2023-09-07T06:56:53;95720.72;;;16.60;98.92
72409;BME280;60402;48.082;11.628;2023-09-07T06:59:38;95729.13;;;16.82;99.30
72409;BME280;60402;48.082;11.628;2023-09-07T07:02:24;95740.28;;;17.14;98.93
72409;BME280;60402;48.082;11.628;2023-09-07T07:05:09;95733.53;;;18.16;92.75
72409;BME280;60402;48.082;11.628;2023-09-07T07:07:55;95732.56;;;18.34;92.21
72409;BME280;60402;48.082;11.628;2023-09-07T07:10:42;95733.53;;;18.84;88.85
72409;BME280;60402;48.082;11.628;2023-09-07T07:13:27;95732.06;;;18.74;90.78
72409;BME280;60402;48.082;11.628;2023-09-07T07:16:13;95743.03;;;18.37;91.09
72409;BME280;60402;48.082;11.628;2023-09-07T07:18:59;95738.50;;;18.45;92.63
72409;BME280;60402;48.082;11.628;2023-09-07T07:21:45;95747.59;;;19.62;87.69
72409;BME280;60402;48.082;11.628;2023-09-07T07:24:30;95732.59;;;20.75;80.75
72409;BME280;60402;48.082;11.628;2023-09-07T07:27:16;95749.53;;;22.31;72.47
72409;BME280;60402;48.082;11.628;2023-09-07T07:30:02;95729.22;;;24.36;64.28
72409;BME280;60402;48.082;11.628;2023-09-07T07:32:48;95751.38;;;25.93;59.16
72409;BME280;60402;48.082;11.628;2023-09-07T07:35:36;95751.47;;;25.82;57.49
72409;BME280;60402;48.082;11.628;2023-09-07T07:38:21;95754.41;;;29.89;46.95
72409;BME280;60402;48.082;11.628;2023-09-07T07:41:08;95750.88;;;27.76;50.93
72409;BME280;60402;48.082;11.628;2023-09-07T07:43:53;95755.84;;;28.08;49.38
72409;BME280;60402;48.082;11.628;2023-09-07T07:46:39;95754.00;;;25.61;56.25
72409;BME280;60402;48.082;11.628;2023-09-07T07:49:25;95763.63;;;27.54;50.85
72409;BME280;60402;48.082;11.628;2023-09-07T07:52:10;95754.13;;;27.54;51.21
72409;BME280;60402;48.082;11.628;2023-09-07T07:54:56;95747.59;;;29.52;45.36
72409;BME280;60402;48.082;11.628;2023-09-07T07:57:42;95759.31;;;30.64;42.87
72409;BME280;60402;48.082;11.628;2023-09-07T08:00:27;95762.38;;;28.93;47.52
72409;BME280;60402;48.082;11.628;2023-09-07T08:03:13;95747.22;;;32.76;40.25
72409;BME280;60402;48.082;11.628;2023-09-07T08:05:59;95747.50;;;33.91;35.87
72409;BME280;60402;48.082;11.628;2023-09-07T08:08:44;95746.13;;;34.00;36.45
72409;BME280;60402;48.082;11.628;2023-09-07T08:11:30;95707.28;;;32.02;37.54
72409;BME280;60402;48.082;11.628;2023-09-07T08:14:16;95755.59;;;33.50;38.41
72409;BME280;60402;48.082;11.628;2023-09-07T08:17:01;95756.69;;;35.74;33.47
72409;BME280;60402;48.082;11.628;2023-09-07T08:19:47;95758.78;;;34.95;35.12
72409;BME280;60402;48.082;11.628;2023-09-07T08:22:33;95760.66;;;36.14;32.80
72409;BME280;60402;48.082;11.628;2023-09-07T08:25:21;95765.47;;;34.53;34.68
72409;BME280;60402;48.082;11.628;2023-09-07T08:28:08;95753.44;;;32.65;38.25
72409;BME280;60402;48.082;11.628;2023-09-07T08:30:54;95757.28;;;37.58;30.60
72409;BME280;60402;48.082;11.628;2023-09-07T08:33:40;95751.63;;;36.85;31.03
72409;BME280;60402;48.082;11.628;2023-09-07T08:36:25;95754.59;;;37.92;30.52
72409;BME280;60402;48.082;11.628;2023-09-07T08:39:13;95754.22;;;34.84;34.28
72409;BME280;60402;48.082;11.628;2023-09-07T08:41:59;95756.44;;;34.58;35.29
72409;BME280;60402;48.082;11.628;2023-09-07T08:44:46;95740.66;;;33.64;36.60
72409;BME280;60402;48.082;11.628;2023-09-07T08:47:37;95761.25;;;32.09;40.37
72409;BME280;60402;48.082;11.628;2023-09-07T08:50:23;95739.22;;;36.03;33.55
72409;BME280;60402;48.082;11.628;2023-09-07T08:53:09;95748.41;;;37.88;30.28
72409;BME280;60402;48.082;11.628;2023-09-07T08:55:55;95741.41;;;39.27;28.52
72409;BME280;60402;48.082;11.628;2023-09-07T08:58:40;95733.69;;;37.20;31.09
72409;BME280;60402;48.082;11.628;2023-09-07T09:01:26;95746.09;;;38.37;29.57
72409;BME280;60402;48.082;11.628;2023-09-07T09:04:13;95751.69;;;37.14;30.92
72409;BME280;60402;48.082;11.628;2023-09-07T09:07:00;95756.66;;;35.92;33.17
72409;BME280;60402;48.082;11.628;2023-09-07T09:09:48;95748.03;;;35.49;33.69
72409;BME280;60402;48.082;11.628;2023-09-07T09:12:35;95748.81;;;35.50;33.69
72409;BME280;60402;48.082;11.628;2023-09-07T09:15:23;95737.56;;;33.14;37.81
72409;BME280;60402;48.082;11.628;2023-09-07T09:18:10;95729.88;;;31.94;39.16
72409;BME280;60402;48.082;11.628;2023-09-07T09:20:57;95743.31;;;30.29;44.92
72409;BME280;60402;48.082;11.628;2023-09-07T09:23:48;95744.56;;;29.58;46.19
72409;BME280;60402;48.082;11.628;2023-09-07T09:26:37;95740.91;;;29.10;48.67
72409;BME280;60402;48.082;11.628;2023-09-07T09:29:23;95717.78;;;28.77;48.63
72409;BME280;60402;48.082;11.628;2023-09-07T09:32:13;95735.94;;;27.53;52.37
72409;BME280;60402;48.082;11.628;2023-09-07T09:34:58;95717.72;;;27.52;53.83
72409;BME280;60402;48.082;11.628;2023-09-07T09:37:48;95731.72;;;27.67;52.93
72409;BME280;60402;48.082;11.628;2023-09-07T09:40:34;95722.25;;;27.67;52.90
72409;BME280;60402;48.082;11.628;2023-09-07T09:43:20;95726.22;;;26.56;56.63
72409;BME280;60402;48.082;11.628;2023-09-07T09:46:07;95725.91;;;26.35;58.96
72409;BME280;60402;48.082;11.628;2023-09-07T09:48:54;95724.09;;;26.57;59.71
72409;BME280;60402;48.082;11.628;2023-09-07T09:51:41;95728.81;;;26.60;58.81
72409;BME280;60402;48.082;11.628;2023-09-07T09:54:27;95703.06;;;26.07;60.28
72409;BME280;60402;48.082;11.628;2023-09-07T09:57:13;95717.66;;;25.96;60.83
72409;BME280;60402;48.082;11.628;2023-09-07T09:59:59;95706.84;;;25.96;60.45
72409;BME280;60402;48.082;11.628;2023-09-07T10:03:00;95729.41;;;25.79;61.34
72409;BME280;60402;48.082;11.628;2023-09-07T10:05:48;95714.31;;;25.56;62.78
72409;BME280;60402;48.082;11.628;2023-09-07T10:08:33;95706.91;;;24.89;65.15
72409;BME280;60402;48.082;11.628;2023-09-07T10:11:29;95733.56;;;24.71;67.47
72409;BME280;60402;48.082;11.628;2023-09-07T10:14:16;95689.78;;;24.50;65.96
72409;BME280;60402;48.082;11.628;2023-09-07T10:17:02;95695.75;;;24.63;66.59
72409;BME280;60402;48.082;11.628;2023-09-07T10:19:49;95706.78;;;24.65;67.62
72409;BME280;60402;48.082;11.628;2023-09-07T10:22:37;95699.84;;;24.27;67.80
72409;BME280;60402;48.082;11.628;2023-09-07T10:25:23;95704.47;;;23.71;71.78
72409;BME280;60402;48.082;11.628;2023-09-07T10:31:05;95690.72;;;24.11;69.67
72409;BME280;60402;48.082;11.628;2023-09-07T10:33:51;95711.44;;;24.15;69.48
72409;BME280;60402;48.082;11.628;2023-09-07T10:36:37;95703.59;;;24.05;69.96
72409;BME280;60402;48.082;11.628;2023-09-07T10:39:23;95686.78;;;24.14;69.41
72409;BME280;60402;48.082;11.628;2023-09-07T10:42:23;95708.72;;;24.45;69.19
72409;BME280;60402;48.082;11.628;2023-09-07T10:45:14;95689.56;;;24.37;69.65
72409;BME280;60402;48.082;11.628;2023-09-07T10:48:02;95675.41;;;24.33;68.28
72409;BME280;60402;48.082;11.628;2023-09-07T10:50:51;95702.69;;;24.43;68.74
72409;BME280;60402;48.082;11.628;2023-09-07T10:53:37;95689.19;;;23.93;70.09
72409;BME280;60402;48.082;11.628;2023-09-07T10:56:24;95690.16;;;24.24;69.29
72409;BME280;60402;48.082;11.628;2023-09-07T10:59:13;95699.50;;;24.53;68.02
72409;BME280;60402;48.082;11.628;2023-09-07T11:02:05;95675.91;;;24.32;68.12
72409;BME280;60402;48.082;11.628;2023-09-07T11:04:51;95701.38;;;24.44;68.12
72409;BME280;60402;48.082;11.628;2023-09-07T11:07:37;95682.16;;;24.53;67.55
72409;BME280;60402;48.082;11.628;2023-09-07T11:10:25;95701.03;;;24.59;68.84
72409;BME280;60402;48.082;11.628;2023-09-07T11:13:10;95695.34;;;24.37;69.19
72409;BME280;60402;48.082;11.628;2023-09-07T11:15:57;95689.84;;;24.39;70.00
72409;BME280;60402;48.082;11.628;2023-09-07T11:18:45;95683.72;;;24.54;69.15
72409;BME280;60402;48.082;11.628;2023-09-07T11:21:32;95657.41;;;24.63;66.87
72409;BME280;60402;48.082;11.628;2023-09-07T11:24:19;95687.25;;;24.82;66.06
72409;BME280;60402;48.082;11.628;2023-09-07T11:27:05;95678.50;;;24.52;68.58
72409;BME280;60402;48.082;11.628;2023-09-07T11:29:52;95685.25;;;24.60;68.26
72409;BME280;60402;48.082;11.628;2023-09-07T11:32:37;95684.25;;;24.58;68.33
72409;BME280;60402;48.082;11.628;2023-09-07T11:35:25;95693.34;;;24.73;68.39
72409;BME280;60402;48.082;11.628;2023-09-07T11:38:13;95683.19;;;24.55;68.32
72409;BME280;60402;48.082;11.628;2023-09-07T11:40:59;95663.19;;;24.63;67.48
72409;BME280;60402;48.082;11.628;2023-09-07T11:43:45;95653.94;;;24.76;67.30
72409;BME280;60402;48.082;11.628;2023-09-07T11:46:30;95677.13;;;25.00;66.52
72409;BME280;60402;48.082;11.628;2023-09-07T11:49:16;95682.06;;;25.11;66.41
72409;BME280;60402;48.082;11.628;2023-09-07T11:52:05;95655.72;;;24.79;67.76
72409;BME280;60402;48.082;11.628;2023-09-07T11:54:51;95662.41;;;25.04;67.56
72409;BME280;60402;48.082;11.628;2023-09-07T11:57:37;95667.41;;;25.03;67.74
72409;BME280;60402;48.082;11.628;2023-09-07T12:00:22;95661.59;;;25.09;67.26
72409;BME280;60402;48.082;11.628;2023-09-07T12:03:09;95655.28;;;25.10;67.21
72409;BME280;60402;48.082;11.628;2023-09-07T12:05:57;95643.91;;;25.18;67.50
72409;BME280;60402;48.082;11.628;2023-09-07T12:09:04;95676.25;;;25.16;67.38
72409;BME280;60402;48.082;11.628;2023-09-07T12:11:50;95607.66;;;24.81;66.87
72409;BME280;60402;48.082;11.628;2023-09-07T12:14:36;95640.59;;;25.08;66.21
72409;BME280;60402;48.082;11.628;2023-09-07T12:17:23;95663.38;;;25.47;66.17
72409;BME280;60402;48.082;11.628;2023-09-07T12:20:08;95642.81;;;25.21;66.74
72409;BME280;60402;48.082;11.628;2023-09-07T12:22:55;95662.53;;;25.22;66.45
72409;BME280;60402;48.082;11.628;2023-09-07T12:25:40;95647.19;;;25.33;67.02
72409;BME280;60402;48.082;11.628;2023-09-07T12:28:26;95651.56;;;25.45;65.54
72409;BME280;60402;48.082;11.628;2023-09-07T12:31:12;95652.22;;;25.57;64.38
72409;BME280;60402;48.082;11.628;2023-09-07T12:33:59;95646.75;;;25.23;66.77
72409;BME280;60402;48.082;11.628;2023-09-07T12:36:48;95655.88;;;25.33;66.06
72409;BME280;60402;48.082;11.628;2023-09-07T12:39:34;95656.41;;;25.32;65.85
72409;BME280;60402;48.082;11.628;2023-09-07T12:42:21;95647.91;;;25.39;65.08
72409;BME280;60402;48.082;11.628;2023-09-07T12:45:08;95637.03;;;25.21;64.86
72409;BME280;60402;48.082;11.628;2023-09-07T12:47:54;95638.81;;;25.30;64.20
72409;BME280;60402;48.082;11.628;2023-09-07T12:50:40;95627.94;;;25.41;62.87
72409;BME280;60402;48.082;11.628;2023-09-07T12:53:28;95648.34;;;25.49;62.82
72409;BME280;60402;48.082;11.628;2023-09-07T12:56:15;95607.63;;;25.17;64.05
72409;BME280;60402;48.082;11.628;2023-09-07T12:59:01;95632.13;;;25.40;64.98
72409;BME280;60402;48.082;11.628;2023-09-07T13:01:48;95640.00;;;25.70;62.96
72409;BME280;60402;48.082;11.628;2023-09-07T13:04:34;95623.41;;;25.46;62.14
72409;BME280;60402;48.082;11.628;2023-09-07T13:07:20;95622.63;;;25.45;62.38
72409;BME280;60402;48.082;11.628;2023-09-07T13:10:06;95628.22;;;25.38;62.11
72409;BME280;60402;48.082;11.628;2023-09-07T13:12:52;95640.75;;;25.76;62.02
72409;BME280;60402;48.082;11.628;2023-09-07T13:15:38;95633.34;;;25.81;61.66
72409;BME280;60402;48.082;11.628;2023-09-07T13:18:24;95644.31;;;25.58;60.92
72409;BME280;60402;48.082;11.628;2023-09-07T13:21:10;95640.00;;;25.45;61.57
72409;BME280;60402;48.082;11.628;2023-09-07T13:23:55;95620.53;;;25.46;61.92
72409;BME280;60402;48.082;11.628;2023-09-07T13:26:41;95622.44;;;25.62;59.26
72409;BME280;60402;48.082;11.628;2023-09-07T13:29:27;95615.94;;;25.56;61.08
72409;BME280;60402;48.082;11.628;2023-09-07T13:32:12;95631.81;;;25.74;57.78
72409;BME280;60402;48.082;11.628;2023-09-07T13:34:58;95618.63;;;25.48;59.90
72409;BME280;60402;48.082;11.628;2023-09-07T13:37:44;95621.00;;;25.74;59.07
72409;BME280;60402;48.082;11.628;2023-09-07T13:40:29;95624.41;;;25.79;58.51
72409;BME280;60402;48.082;11.628;2023-09-07T13:43:15;95622.72;;;25.64;57.12
72409;BME280;60402;48.082;11.628;2023-09-07T13:46:01;95614.34;;;25.31;58.32
72409;BME280;60402;48.082;11.628;2023-09-07T13:48:46;95618.94;;;25.45;57.88
72409;BME280;60402;48.082;11.628;2023-09-07T13:51:32;95613.19;;;25.69;55.70
72409;BME280;60402;48.082;11.628;2023-09-07T13:54:23;95626.41;;;25.59;53.83
72409;BME280;60402;48.082;11.628;2023-09-07T13:57:08;95610.75;;;25.73;53.11
72409;BME280;60402;48.082;11.628;2023-09-07T13:59:54;95613.69;;;25.68;54.76
72409;BME280;60402;48.082;11.628;2023-09-07T14:02:40;95618.22;;;25.63;52.29
72409;BME280;60402;48.082;11.628;2023-09-07T14:05:25;95611.41;;;25.36;53.00
72409;BME280;60402;48.082;11.628;2023-09-07T14:08:11;95606.28;;;25.72;53.09
72409;BME280;60402;48.082;11.628;2023-09-07T14:10:57;95629.50;;;25.67;52.80
72409;BME280;60402;48.082;11.628;2023-09-07T14:13:42;95608.19;;;25.40;51.92
72409;BME280;60402;48.082;11.628;2023-09-07T14:16:28;95624.56;;;25.62;56.48
72409;BME280;60402;48.082;11.628;2023-09-07T14:19:13;95618.09;;;25.50;57.02
72409;BME280;60402;48.082;11.628;2023-09-07T14:22:00;95617.69;;;25.65;54.49
72409;BME280;60402;48.082;11.628;2023-09-07T14:24:45;95603.09;;;25.52;52.43
72409;BME280;60402;48.082;11.628;2023-09-07T14:27:31;95622.31;;;25.49;51.84